Observations for ALICANTE EL ALTET, Spain (LEAL)

LEAL 180530Z 18003KT 150V210 CAVOK 19/14 Q1020 NOSIG
LEAL 180500Z 25003KT CAVOK 19/14 Q1020 NOSIG
LEAL 180430Z 31003KT CAVOK 19/14 Q1019 NOSIG
LEAL 180400Z 29005KT CAVOK 19/14 Q1019 NOSIG
LEAL 180330Z 31003KT 270V350 CAVOK 20/15 Q1019 NOSIG
LEAL 180300Z 32004KT CAVOK 20/15 Q1019 NOSIG
LEAL 180230Z 31003KT 280V340 CAVOK 19/16 Q1019 NOSIG
LEAL 180200Z 28003KT CAVOK 19/16 Q1019 NOSIG
LEAL 180130Z VRB01KT CAVOK 20/16 Q1020 NOSIG
LEAL 180100Z VRB01KT CAVOK 20/17 Q1020 NOSIG
LEAL 180030Z 27003KT CAVOK 20/17 Q1020 NOSIG
LEAL 180000Z 02003KT 340V070 CAVOK 22/18 Q1020 NOSIG
LEAL 172330Z 02003KT 340V060 CAVOK 22/18 Q1020 NOSIG
LEAL 172300Z VRB02KT CAVOK 22/18 Q1020 NOSIG
LEAL 172230Z VRB01KT CAVOK 22/19 Q1020 NOSIG
LEAL 172200Z 00000KT CAVOK 22/18 Q1020 NOSIG
LEAL 172130Z VRB01KT CAVOK 22/18 Q1020 NOSIG
LEAL 172100Z 14002KT CAVOK 22/19 Q1020 NOSIG
LEAL 172030Z VRB02KT CAVOK 23/18 Q1020 NOSIG
LEAL 172000Z 11003KT 080V140 CAVOK 23/18 Q1020 NOSIG
LEAL 171930Z 10004KT 080V140 CAVOK 23/18 Q1019 NOSIG
LEAL 171900Z 10005KT 070V160 CAVOK 24/17 Q1019 NOSIG
LEAL 171830Z 10004KT 050V140 CAVOK 25/17 Q1019 NOSIG
LEAL 171800Z 11004KT 050V210 CAVOK 25/16 Q1019 NOSIG
LEAL 171730Z 10006KT 070V160 CAVOK 25/16 Q1019 NOSIG
LEAL 171700Z 11006KT 070V160 CAVOK 26/16 Q1019 NOSIG
LEAL 171630Z 11007KT 080V170 CAVOK 26/16 Q1019 NOSIG
LEAL 171600Z 09009KT 060V150 CAVOK 27/14 Q1019 NOSIG
LEAL 171530Z 11009KT 070V150 CAVOK 26/15 Q1019 NOSIG
LEAL 171500Z 10009KT 080V150 CAVOK 26/14 Q1019 NOSIG
LEAL 171430Z 10009KT 060V150 CAVOK 26/15 Q1019 NOSIG
LEAL 171400Z 09009KT 060V140 CAVOK 27/13 Q1019 NOSIG
LEAL 171330Z 10009KT 060V160 CAVOK 27/14 Q1019 NOSIG
LEAL 171300Z 11008KT 070V150 CAVOK 27/14 Q1019 NOSIG
LEAL 171230Z 10009KT 070V150 CAVOK 27/14 Q1019 NOSIG
LEAL 171200Z 09008KT 060V150 CAVOK 27/15 Q1019 NOSIG
LEAL 171130Z 09008KT 060V120 CAVOK 27/15 Q1020 NOSIG
LEAL 171100Z 09008KT 060V150 CAVOK 27/15 Q1020 NOSIG
LEAL 171030Z 09007KT 060V150 CAVOK 26/15 Q1020 NOSIG
LEAL 171000Z 09006KT 050V140 CAVOK 26/17 Q1019 NOSIG
LEAL 170930Z 08006KT 040V120 CAVOK 26/17 Q1019 NOSIG
LEAL 170900Z 08005KT 030V140 CAVOK 25/18 Q1019 NOSIG
LEAL 170830Z 07004KT 030V120 CAVOK 25/17 Q1019 NOSIG
LEAL 170800Z 07004KT 020V140 CAVOK 24/18 Q1019 NOSIG
LEAL 170730Z 06003KT 010V110 CAVOK 24/18 Q1019 NOSIG
LEAL 170700Z VRB02KT CAVOK 24/17 Q1019 NOSIG
LEAL 170630Z 02003KT 350V050 CAVOK 23/15 Q1019 NOSIG
LEAL 170600Z VRB01KT CAVOK 22/16 Q1018 NOSIG
LEAL 170530Z VRB01KT CAVOK 20/16 Q1018 NOSIG
LEAL 170500Z 32002KT CAVOK 19/16 Q1017 NOSIG